Arcadia Salute — 7JRH — position and weather

sailwx.info

Track history (hours):
 
Tides and Currents Weather Stations Pressure Air Temp Water Temp Dewpoint Dewpoint Depression Visibility Wind Speed Wind Dir Waves Ship Positions

Arcadia Salute

Last reported at 2018-Jun-13 04:28 UTC. Time now 2018-Jun-19 20:22 UTC.
Position S 27°47' E 153°56'.

Length 235 m; draft 14.3 m.

Type: Cargo ship. MMSI: 432977000.

Date/timePositionNaut miles runAvg speedWind from/ knotsBaromVisibWave heightAir tempDewpointWater temp
2018-Jun-13 04:28S 27°47' E 153°56'26410.1
2018-Jun-12 02:17S 32°04' E 152°50'1911.5
2018-Jun-12 00:39S 32°22' E 152°41'211.5
2018-Jun-12 00:29S 32°23' E 152°40'511.0
2018-Jun-12 00:00S 32°28' E 152°37'510.6
2018-Jun-11 23:30S 32°32' E 152°34'510.5
2018-Jun-11 23:00S 32°37' E 152°30'510.4
2018-Jun-11 22:30S 32°41' E 152°26'510.2
2018-Jun-11 22:00S 32°45' E 152°22'510.2
2018-Jun-11 21:30S 32°48' E 152°18'510.7
2018-Jun-11 21:00S 32°51' E 152°12'510.8
2018-Jun-11 20:30S 32°54' E 152°07'510.8
2018-Jun-11 20:00S 32°57' E 152°01'510.5
2018-Jun-11 19:30S 32°57' E 151°55'4 8.8
2018-Jun-11 19:00S 32°56' E 151°50'3 5.1
2018-Jun-11 18:30S 32°55' E 151°47'2 3.6
2018-Jun-11 18:00S 32°54' E 151°46'0 0.8
2018-Jun-11 17:30S 32°53' E 151°46'0 0.0
2018-Jun-11 17:00S 32°53' E 151°46'0 0.0
2018-Jun-11 16:30S 32°53' E 151°46'0 0.0
2018-Jun-11 16:00S 32°53' E 151°46'0 0.0
2018-Jun-11 15:30S 32°53' E 151°46'0 0.0
2018-Jun-11 15:00S 32°53' E 151°46'0 0.0
2018-Jun-11 14:30S 32°53' E 151°46'0 0.0
2018-Jun-11 13:36S 32°53' E 151°46'0 0.0
2018-Jun-11 13:30S 32°53' E 151°46'0 0.0
2018-Jun-11 13:00S 32°53' E 151°46'0 0.0
2018-Jun-11 12:30S 32°53' E 151°46'0 0.0
2018-Jun-11 12:00S 32°53' E 151°46'0 0.0
2018-Jun-11 11:30S 32°53' E 151°46'0 0.0
2018-Jun-11 10:54S 32°53' E 151°46'0 0.0
2018-Jun-11 10:24S 32°53' E 151°46'0 0.0
2018-Jun-11 10:00S 32°53' E 151°46'0 0.0
2018-Jun-11 09:30S 32°53' E 151°46'0 0.0
2018-Jun-11 08:57S 32°53' E 151°46'0 0.0
2018-Jun-11 08:30S 32°53' E 151°46'0 0.0
2018-Jun-11 08:00S 32°53' E 151°46'0 0.0
2018-Jun-11 07:30S 32°53' E 151°46'0 0.0
2018-Jun-11 07:00S 32°53' E 151°46'0 0.0
2018-Jun-11 06:30S 32°53' E 151°46'0 0.0
2018-Jun-11 06:00S 32°53' E 151°46'0 0.0
2018-Jun-11 05:30S 32°53' E 151°46'0 0.0
2018-Jun-11 05:00S 32°53' E 151°46'0 0.0
2018-Jun-11 04:30S 32°53' E 151°46'0 0.0
2018-Jun-11 04:00S 32°53' E 151°46'0 0.0
2018-Jun-11 03:30S 32°53' E 151°46'0 0.0
2018-Jun-11 03:00S 32°53' E 151°46'0 0.0
2018-Jun-11 02:30S 32°53' E 151°46'0 0.0
2018-Jun-11 02:00S 32°53' E 151°46'0 0.0
2018-Jun-11 01:30S 32°53' E 151°46'0 0.0
2018-Jun-11 01:00S 32°53' E 151°46'0 0.0
2018-Jun-11 00:30S 32°53' E 151°46'1 1.1
2018-Jun-11 00:00S 32°54' E 151°46'2 4.3
2018-Jun-10 23:31S 32°55' E 151°49'4 7.5
2018-Jun-10 23:00S 32°57' E 151°52'2 4.1
2018-Jun-10 22:31S 32°59' E 151°51'3 6.4
2018-Jun-10 22:00S 33°01' E 151°48'4 7.4
2018-Jun-10 21:30S 33°04' E 151°45'1 1.0
2018-Jun-10 20:59S 33°04' E 151°44'0 0.1
2018-Jun-10 20:29S 33°04' E 151°44'0 0.1
2018-Jun-10 19:56S 33°04' E 151°44'0 0.1
2018-Jun-10 19:26S 33°04' E 151°45'0 0.0
2018-Jun-10 18:59S 33°04' E 151°45'0 0.1
2018-Jun-10 18:29S 33°04' E 151°44'0 0.1
2018-Jun-10 17:59S 33°04' E 151°45'0 0.1
2018-Jun-10 17:14S 33°04' E 151°44'0 0.0
2018-Jun-10 16:59S 33°04' E 151°44'0 0.1
2018-Jun-10 16:29S 33°04' E 151°45'0 0.2
2018-Jun-10 15:59S 33°04' E 151°44'0 0.2
2018-Jun-10 15:29S 33°04' E 151°45'0 0.1
2018-Jun-10 14:59S 33°04' E 151°44'0 0.0
2018-Jun-10 14:29S 33°04' E 151°44'0 0.0
2018-Jun-10 13:29S 33°04' E 151°44'0 0.1
2018-Jun-10 12:59S 33°04' E 151°45'0 0.1
2018-Jun-10 12:29S 33°04' E 151°44'0 0.0
2018-Jun-10 11:50S 33°04' E 151°44'0 0.0
2018-Jun-10 11:29S 33°04' E 151°44'0 0.1
2018-Jun-10 10:59S 33°04' E 151°44'0 0.1
2018-Jun-10 10:29S 33°04' E 151°44'0 0.1
2018-Jun-10 09:59S 33°04' E 151°44'0 0.0
2018-Jun-10 09:17S 33°04' E 151°44'0 0.1
2018-Jun-10 08:44S 33°04' E 151°45'0 0.0
2018-Jun-10 08:11S 33°04' E 151°45'0 0.0
2018-Jun-10 07:59S 33°04' E 151°45'0 0.0
2018-Jun-10 07:29S 33°04' E 151°45'0 0.0
2018-Jun-10 06:59S 33°04' E 151°45'0 0.1
2018-Jun-10 06:29S 33°04' E 151°44'0 0.0
2018-Jun-10 05:59S 33°04' E 151°44'0 0.2
2018-Jun-10 05:29S 33°04' E 151°45'0 0.0
2018-Jun-10 04:56S 33°04' E 151°45'0 0.0
2018-Jun-10 04:26S 33°04' E 151°45'0 0.0
2018-Jun-10 03:59S 33°04' E 151°45'0 0.1
2018-Jun-10 03:29S 33°04' E 151°45'0 0.1
2018-Jun-10 02:56S 33°04' E 151°45'0 0.0
2018-Jun-10 02:29S 33°04' E 151°45'0 0.0
2018-Jun-10 01:59S 33°04' E 151°45'0 0.0
2018-Jun-10 01:26S 33°04' E 151°45'0 0.1
2018-Jun-10 00:56S 33°04' E 151°45'0 0.0
2018-Jun-09 23:41S 33°04' E 151°45'0 0.2
2018-Jun-09 23:23S 33°04' E 151°44'0 0.1
2018-Jun-09 22:59S 33°04' E 151°45'0 0.0
2018-Jun-09 22:23S 33°04' E 151°45'0 0.1
2018-Jun-09 21:32S 33°04' E 151°44'0 0.0
2018-Jun-09 21:26S 33°04' E 151°44'0 0.0
2018-Jun-09 20:59S 33°04' E 151°44'0 0.1
2018-Jun-09 20:29S 33°04' E 151°44'0 0.0
2018-Jun-09 19:56S 33°04' E 151°44'0 0.1
2018-Jun-09 19:26S 33°04' E 151°44'0 0.0
2018-Jun-09 18:08S 33°04' E 151°44'0 0.1
2018-Jun-09 17:44S 33°04' E 151°44'0 0.0
2018-Jun-09 17:20S 33°04' E 151°44'0 0.2
2018-Jun-09 16:59S 33°04' E 151°44'0 0.1
2018-Jun-09 16:20S 33°04' E 151°44'0 0.0
2018-Jun-09 15:56S 33°04' E 151°44'0 0.0
2018-Jun-09 15:29S 33°04' E 151°44'0 0.0
2018-Jun-09 14:29S 33°04' E 151°44'0 0.0
2018-Jun-09 13:56S 33°04' E 151°44'0 0.1
2018-Jun-09 12:05S 33°04' E 151°45'0 0.2
2018-Jun-09 11:56S 33°04' E 151°45'0 0.1
2018-Jun-09 11:23S 33°04' E 151°45'0 0.1
2018-Jun-09 10:29S 33°04' E 151°45'0 0.1
2018-Jun-09 09:59S 33°04' E 151°45'0 0.0
2018-Jun-09 09:29S 33°04' E 151°45'0 0.1
2018-Jun-09 08:59S 33°04' E 151°44'0 0.0
2018-Jun-09 08:23S 33°04' E 151°44'0 0.0
2018-Jun-09 07:59S 33°04' E 151°44'0 0.0
2018-Jun-09 07:29S 33°04' E 151°44'0 0.0
2018-Jun-09 06:59S 33°04' E 151°44'0 0.0
2018-Jun-09 06:29S 33°04' E 151°44'0 0.0
2018-Jun-09 05:59S 33°04' E 151°44'0 0.0
2018-Jun-09 05:26S 33°04' E 151°44'0 0.0
2018-Jun-09 04:59S 33°04' E 151°44'0 0.0
2018-Jun-09 04:23S 33°04' E 151°44'0 0.0
2018-Jun-09 03:56S 33°04' E 151°44'0 0.0
2018-Jun-09 03:17S 33°04' E 151°44'0 0.0
2018-Jun-09 02:59S 33°04' E 151°44'0 0.0
2018-Jun-09 02:23S 33°04' E 151°44'0 0.0
2018-Jun-09 01:56S 33°04' E 151°44'0 0.1
2018-Jun-09 01:29S 33°04' E 151°45'0 0.1
2018-Jun-09 00:59S 33°04' E 151°44'0 0.1
2018-Jun-09 00:29S 33°04' E 151°45'0 0.0
2018-Jun-08 23:59S 33°04' E 151°45'0 0.0
2018-Jun-08 23:29S 33°04' E 151°45'0 0.0
2018-Jun-08 22:59S 33°04' E 151°45'0 0.0
2018-Jun-08 22:29S 33°04' E 151°45'0 0.0
2018-Jun-08 21:59S 33°04' E 151°45'0 0.1
2018-Jun-08 21:29S 33°04' E 151°44'0 0.0
2018-Jun-08 20:53S 33°04' E 151°44'0 0.0
2018-Jun-08 20:29S 33°04' E 151°44'0 0.0
2018-Jun-08 19:59S 33°04' E 151°44'0 0.1
2018-Jun-08 19:29S 33°04' E 151°44'0 0.0
2018-Jun-08 18:56S 33°04' E 151°44'0 0.0
2018-Jun-08 16:47S 33°04' E 151°44'0 0.0
2018-Jun-08 16:26S 33°04' E 151°44'0 0.0
2018-Jun-08 15:59S 33°04' E 151°44'0 0.0
2018-Jun-08 15:29S 33°04' E 151°44'0 0.0
2018-Jun-08 14:59S 33°04' E 151°44'0 0.0
2018-Jun-08 13:41S 33°04' E 151°44'0 0.0
2018-Jun-08 13:29S 33°04' E 151°44'0 0.0
2018-Jun-08 12:41S 33°04' E 151°44'0 0.1
2018-Jun-08 12:29S 33°04' E 151°44'0 0.0
2018-Jun-08 11:59S 33°04' E 151°44'0 0.0
2018-Jun-08 11:29S 33°04' E 151°44'0 0.0
2018-Jun-08 10:41S 33°04' E 151°44'0 0.0
2018-Jun-08 10:23S 33°04' E 151°44'0 0.0
2018-Jun-08 09:59S 33°04' E 151°44'0 0.0
2018-Jun-08 09:26S 33°04' E 151°44'0 0.0
2018-Jun-08 08:59S 33°04' E 151°44'0 0.0
2018-Jun-08 08:29S 33°04' E 151°44'0 0.0
2018-Jun-08 07:47S 33°04' E 151°44'0 0.0
2018-Jun-08 07:26S 33°04' E 151°44'0 0.0
2018-Jun-08 06:47S 33°04' E 151°44'0 0.0
2018-Jun-08 05:44S 33°04' E 151°44'0 0.0
2018-Jun-08 05:20S 33°04' E 151°44'0 0.0
2018-Jun-08 04:56S 33°04' E 151°44'0 0.0
2018-Jun-08 04:26S 33°04' E 151°44'0 0.0
2018-Jun-08 03:59S 33°04' E 151°44'0 0.0
2018-Jun-08 03:29S 33°04' E 151°44'0 0.0
2018-Jun-08 02:59S 33°04' E 151°44'0 0.1
2018-Jun-08 02:29S 33°04' E 151°44'0 0.0
2018-Jun-08 01:53S 33°04' E 151°44'0 0.1
2018-Jun-08 01:29S 33°04' E 151°44'0 0.0
2018-Jun-08 00:59S 33°04' E 151°44'0 0.1
2018-Jun-08 00:29S 33°04' E 151°44'0 0.0
2018-Jun-07 23:59S 33°04' E 151°44'0 0.0
2018-Jun-07 23:29S 33°04' E 151°44'0 0.0
2018-Jun-07 22:59S 33°04' E 151°44'0 0.0
2018-Jun-07 22:23S 33°04' E 151°44'0 0.0
2018-Jun-07 21:47S 33°04' E 151°44'0 0.0
2018-Jun-07 21:26S 33°04' E 151°44'0 0.0
2018-Jun-07 20:56S 33°04' E 151°44'0 0.0
2018-Jun-07 20:29S 33°04' E 151°44'0 0.0
2018-Jun-07 19:59S 33°04' E 151°44'0 0.0
2018-Jun-07 19:23S 33°04' E 151°44'0 0.0
2018-Jun-07 18:59S 33°04' E 151°44'0 0.0
2018-Jun-07 18:29S 33°04' E 151°44'0 0.0
2018-Jun-07 17:59S 33°04' E 151°44'0 0.0
2018-Jun-07 17:26S 33°04' E 151°44'0 0.0
2018-Jun-07 16:59S 33°04' E 151°44'0 0.0
2018-Jun-07 16:23S 33°04' E 151°44'0 0.0
2018-Jun-07 15:56S 33°04' E 151°44'0 0.0
2018-Jun-07 15:05S 33°04' E 151°44'0 0.1
2018-Jun-07 14:59S 33°04' E 151°44'0 0.1
2018-Jun-07 14:23S 33°04' E 151°44'0 0.1
2018-Jun-07 13:59S 33°04' E 151°44'0 0.0
2018-Jun-07 12:56S 33°04' E 151°44'0 0.0
2018-Jun-07 12:29S 33°04' E 151°44'0 0.0
2018-Jun-07 11:53S 33°04' E 151°44'0 0.0
2018-Jun-07 11:23S 33°04' E 151°44'0 0.0
2018-Jun-07 08:53S 33°04' E 151°44'0 0.0
2018-Jun-07 08:23S 33°04' E 151°44'0 0.0
2018-Jun-07 07:59S 33°04' E 151°44'0 0.0
2018-Jun-07 07:29S 33°04' E 151°44'0 0.0
2018-Jun-07 05:32S 33°04' E 151°44'0 0.1
2018-Jun-07 05:23S 33°04' E 151°44'0 0.0
2018-Jun-07 04:50S 33°04' E 151°44'0 0.0
2018-Jun-07 04:14S 33°04' E 151°44'0 0.0
2018-Jun-07 03:47S 33°04' E 151°44'0 0.0
2018-Jun-07 03:28S 33°04' E 151°44'0 0.0
2018-Jun-07 02:52S 33°04' E 151°44'0 0.0
2018-Jun-07 02:10S 33°04' E 151°44'0 0.0
2018-Jun-07 01:34S 33°04' E 151°44'0 0.0
2018-Jun-07 01:13S 33°04' E 151°44'0 0.0
2018-Jun-07 00:49S 33°04' E 151°44'0 0.0
2018-Jun-07 00:13S 33°04' E 151°44'0 0.0
2018-Jun-06 23:46S 33°04' E 151°44'0 0.0
2018-Jun-06 23:04S 33°04' E 151°44'0 0.2
2018-Jun-06 22:58S 33°04' E 151°44'0 0.0
2018-Jun-06 22:13S 33°04' E 151°44'0 0.0
2018-Jun-06 21:58S 33°04' E 151°44'0 0.0
2018-Jun-06 21:22S 33°04' E 151°44'0 0.1
2018-Jun-06 20:58S 33°04' E 151°44'0 0.1
2018-Jun-06 20:28S 33°04' E 151°44'0 0.0
2018-Jun-06 19:31S 33°04' E 151°44'0 0.0
2018-Jun-06 19:22S 33°04' E 151°44'0 0.0
2018-Jun-06 18:49S 33°04' E 151°44'0 0.0
2018-Jun-06 18:25S 33°04' E 151°44'0 0.0
2018-Jun-06 17:58S 33°04' E 151°44'0 0.0
2018-Jun-06 17:28S 33°04' E 151°44'0 0.0
2018-Jun-06 16:58S 33°04' E 151°44'0 0.0
2018-Jun-06 16:25S 33°04' E 151°44'0 0.0
2018-Jun-06 15:46S 33°04' E 151°44'0 0.0
2018-Jun-06 15:10S 33°04' E 151°44'0 0.0
2018-Jun-06 14:40S 33°04' E 151°44'0 0.1
2018-Jun-06 14:22S 33°04' E 151°44'0 0.0
2018-Jun-06 13:58S 33°04' E 151°44'0 0.1
2018-Jun-06 13:28S 33°04' E 151°44'0 0.1
2018-Jun-06 12:58S 33°04' E 151°44'0 0.0
2018-Jun-06 12:25S 33°04' E 151°44'0 0.1
2018-Jun-06 11:52S 33°04' E 151°44'0 0.1
2018-Jun-06 11:28S 33°04' E 151°44'0 0.0
2018-Jun-06 10:55S 33°04' E 151°44'0 0.2
2018-Jun-06 10:28S 33°04' E 151°44'0 0.1
2018-Jun-06 09:55S 33°04' E 151°44'0 0.3
2018-Jun-06 09:28S 33°04' E 151°44'0 0.1
2018-Jun-06 08:55S 33°04' E 151°44'0 0.0
2018-Jun-06 08:28S 33°04' E 151°44'0 0.0
2018-Jun-06 07:58S 33°04' E 151°44'0 0.0
2018-Jun-06 07:28S 33°04' E 151°44'0 0.0
2018-Jun-06 06:58S 33°04' E 151°44'0 0.0
2018-Jun-06 06:28S 33°04' E 151°44'0 0.0
2018-Jun-06 05:49S 33°04' E 151°44'0 0.1
2018-Jun-06 05:28S 33°04' E 151°45'0 0.0
2018-Jun-06 04:58S 33°04' E 151°45'0 0.0
2018-Jun-06 04:07S 33°04' E 151°45'0 0.4
2018-Jun-06 03:58S 33°04' E 151°44'0 0.1
2018-Jun-06 03:25S 33°04' E 151°45'0 0.0
2018-Jun-06 02:55S 33°04' E 151°45'0 0.0
2018-Jun-06 02:19S 33°04' E 151°45'0 0.0
2018-Jun-06 01:49S 33°04' E 151°45'0 0.1
2018-Jun-06 01:25S 33°04' E 151°44'0 0.1
2018-Jun-06 00:46S 33°04' E 151°45'0 0.0
2018-Jun-06 00:28S 33°04' E 151°45'0 0.0
2018-Jun-05 23:58S 33°04' E 151°45'0 0.0
2018-Jun-05 23:25S 33°04' E 151°45'0 0.0
2018-Jun-05 22:58S 33°04' E 151°45'0 0.0
2018-Jun-05 22:28S 33°04' E 151°45'0 0.0
2018-Jun-05 21:55S 33°04' E 151°45'0 0.1
2018-Jun-05 21:28S 33°04' E 151°45'0 0.0
2018-Jun-05 20:58S 33°04' E 151°45'0 0.1
2018-Jun-05 20:28S 33°04' E 151°45'0 0.0
2018-Jun-05 19:52S 33°04' E 151°45'0 0.1
2018-Jun-05 19:28S 33°04' E 151°45'0 0.0
2018-Jun-05 18:58S 33°04' E 151°45'0 0.0
2018-Jun-05 18:28S 33°04' E 151°45'0 0.0
2018-Jun-05 17:55S 33°04' E 151°45'0 0.0
2018-Jun-05 17:04S 33°04' E 151°45'0 0.0
2018-Jun-05 16:58S 33°04' E 151°45'0 0.1
2018-Jun-05 16:22S 33°04' E 151°45'0 0.0
2018-Jun-05 15:58S 33°04' E 151°45'0 0.0
2018-Jun-05 15:28S 33°04' E 151°45'0 0.1
2018-Jun-05 14:58S 33°04' E 151°45'0 0.0
2018-Jun-05 14:28S 33°04' E 151°45'0 0.1
2018-Jun-05 13:58S 33°04' E 151°45'0 0.0
2018-Jun-05 13:19S 33°04' E 151°45'0 0.1
2018-Jun-05 12:55S 33°04' E 151°44'0 0.1
2018-Jun-05 12:25S 33°04' E 151°45'0 0.1
2018-Jun-05 11:52S 33°04' E 151°45'0 0.0
2018-Jun-05 11:16S 33°04' E 151°45'0 0.0
2018-Jun-05 10:52S 33°04' E 151°45'0 0.0
2018-Jun-05 10:07S 33°04' E 151°45'0 0.0
2018-Jun-05 09:46S 33°04' E 151°45'0 0.1
2018-Jun-05 09:13S 33°04' E 151°45'0 0.0
2018-Jun-05 08:58S 33°04' E 151°45'0 0.0
2018-Jun-05 08:28S 33°04' E 151°45'0 0.0
2018-Jun-05 07:58S 33°04' E 151°45'0 0.0
2018-Jun-05 07:28S 33°04' E 151°45'0 0.0
2018-Jun-05 06:58S 33°04' E 151°45'0 0.0
2018-Jun-05 06:28S 33°04' E 151°45'0 0.0
2018-Jun-05 05:52S 33°04' E 151°45'0 0.0
2018-Jun-05 05:25S 33°04' E 151°45'0 0.1
2018-Jun-05 04:46S 33°04' E 151°45'0 0.0
2018-Jun-05 04:25S 33°04' E 151°45'0 0.0
2018-Jun-05 03:01S 33°04' E 151°45'0 0.0
2018-Jun-05 02:43S 33°04' E 151°45'0 0.0
2018-Jun-05 00:04S 33°04' E 151°45'0 0.0
2018-Jun-04 23:01S 33°04' E 151°45'0 0.0
2018-Jun-04 22:58S 33°04' E 151°45'1 1.2
2018-Jun-04 22:30S 33°04' E 151°45'2 4.2
2018-Jun-04 22:00S 33°05' E 151°47'5 9.7
2018-Jun-04 21:28S 33°07' E 151°53'511.0
2018-Jun-04 21:00S 33°09' E 151°59'3 4.5
2018-Jun-04 20:19S 33°10' E 152°02'1 1.7
2018-Jun-04 19:58S 33°11' E 152°03'1 1.8
2018-Jun-04 19:28S 33°11' E 152°04'1 1.1
2018-Jun-04 18:58S 33°12' E 152°04'0 0.6
2018-Jun-04 18:28S 33°12' E 152°04'0 0.5
2018-Jun-04 17:55S 33°12' E 152°04'0 0.8
2018-Jun-04 17:28S 33°12' E 152°05'3 6.2
2018-Jun-04 17:00S 33°09' E 152°05'1 1.6
2018-Jun-04 16:29S 33°08' E 152°04'0 0.7
2018-Jun-04 15:56S 33°09' E 152°04'0 0.6
2018-Jun-04 15:29S 33°09' E 152°04'0 0.8
2018-Jun-04 14:59S 33°09' E 152°04'0 0.8
2018-Jun-04 14:29S 33°10' E 152°04'0 0.9
2018-Jun-04 13:56S 33°10' E 152°03'0 1.0
2018-Jun-04 13:29S 33°10' E 152°03'0 0.9
2018-Jun-04 12:56S 33°11' E 152°03'1 1.1
2018-Jun-04 12:26S 33°11' E 152°04'0 0.7
2018-Jun-04 11:59S 33°12' E 152°04'0 0.7
2018-Jun-04 11:26S 33°12' E 152°03'1 3.0
2018-Jun-04 11:00S 33°11' E 152°02'4 7.1
2018-Jun-04 10:30S 33°08' E 152°01'4 8.1
2018-Jun-04 10:00S 33°04' E 151°60'0 0.6
2018-Jun-04 09:28S 33°04' E 151°60'0 0.6
2018-Jun-04 08:58S 33°05' E 151°60'0 0.5
2018-Jun-04 08:28S 33°05' E 151°60'0 0.6
2018-Jun-04 07:58S 33°05' E 151°60'0 0.7
2018-Jun-04 07:28S 33°06' E 151°60'0 0.5
2018-Jun-04 06:58S 33°06' E 151°60'0 0.5
2018-Jun-04 06:28S 33°06' E 151°59'0 0.5
2018-Jun-04 05:58S 33°06' E 151°59'0 0.7
2018-Jun-04 05:28S 33°07' E 151°59'0 0.7
2018-Jun-04 04:58S 33°07' E 151°59'0 0.5
2018-Jun-04 04:28S 33°07' E 151°59'0 0.5
2018-Jun-04 03:55S 33°07' E 151°59'0 0.7
2018-Jun-04 03:28S 33°08' E 151°59'0 0.8
2018-Jun-04 02:59S 33°08' E 151°59'0 0.9
2018-Jun-04 02:29S 33°08' E 151°60'0 0.9
2018-Jun-04 01:58S 33°09' E 152°00'0 0.8
2018-Jun-04 01:28S 33°09' E 152°01'0 0.8
2018-Jun-04 00:58S 33°09' E 152°01'0 0.9
2018-Jun-04 00:28S 33°10' E 152°01'0 0.9
2018-Jun-03 23:58S 33°10' E 152°01'0 0.8
2018-Jun-03 23:28S 33°10' E 152°01'0 0.7
2018-Jun-03 22:55S 33°11' E 152°02'0 0.7
2018-Jun-03 22:28S 33°11' E 152°02'0 0.9
2018-Jun-03 21:58S 33°11' E 152°02'0 0.7
2018-Jun-03 21:28S 33°12' E 152°02'0 0.7
2018-Jun-03 21:00S 33°12' E 152°02'4 7.7
2018-Jun-03 20:30S 33°10' E 151°58'4 8.0
2018-Jun-03 20:01S 33°07' E 151°54'1 1.9
2018-Jun-03 19:29S 33°07' E 151°53'1 2.5
2018-Jun-03 19:00S 33°08' E 151°54'1 2.4
2018-Jun-03 18:30S 33°09' E 151°54'1 2.2
2018-Jun-03 17:50S 33°10' E 151°55'1 1.8
2018-Jun-03 17:21S 33°11' E 151°56'1 2.1
2018-Jun-03 16:54S 33°11' E 151°57'1 1.9
2018-Jun-03 16:26S 33°12' E 151°58'1 2.1
2018-Jun-03 15:57S 33°12' E 151°59'1 2.0
2018-Jun-03 15:27S 33°13' E 151°60'1 2.1
2018-Jun-03 14:54S 33°13' E 152°01'1 2.0
2018-Jun-03 14:27S 33°13' E 152°02'1 1.2
2018-Jun-03 14:00S 33°12' E 152°03'4 7.9
2018-Jun-03 13:30S 33°09' E 152°02'4 8.4
2018-Jun-03 13:00S 33°05' E 151°60'2 3.1
2018-Jun-03 12:30S 33°03' E 151°59'1 2.2
2018-Jun-03 12:00S 33°04' E 151°60'1 2.0
2018-Jun-03 11:27S 33°05' E 152°01'1 2.0
2018-Jun-03 11:00S 33°05' E 152°02'1 1.8
2018-Jun-03 10:30S 33°05' E 152°03'1 2.1
2018-Jun-03 10:00S 33°06' E 152°04'2 4.3
2018-Jun-03 09:30S 33°05' E 152°06'5 9.1
2018-Jun-03 09:00S 33°02' E 152°10'5 9.5
2018-Jun-03 08:30S 32°58' E 152°14'4 8.1
2018-Jun-03 08:00S 32°56' E 152°18'1 1.4
2018-Jun-03 07:30S 32°56' E 152°18'0 0.8
2018-Jun-03 07:00S 32°57' E 152°18'1 1.2
2018-Jun-03 06:30S 32°57' E 152°18'1 1.6
2018-Jun-03 06:00S 32°58' E 152°18'1 1.3
2018-Jun-03 05:30S 32°59' E 152°18'1 1.3
2018-Jun-03 05:00S 32°59' E 152°18'1 1.2
2018-Jun-03 04:31S 33°00' E 152°18'  
Track history (hours):
 
Tides and Currents Weather Stations Pressure Air Temp Water Temp Dewpoint Dewpoint Depression Visibility Wind Speed Wind Dir Waves Ship Positions

Arcadia Salute

Last reported at 2018-Jun-13 04:28 UTC. Time now 2018-Jun-19 20:22 UTC.
Position S 27°47' E 153°56'.

Length 235 m; draft 14.3 m.

Type: Cargo ship. MMSI: 432977000.

Date/timePositionNaut miles runAvg speedWind from/ knotsBaromVisibWave heightAir tempDewpointWater temp
2018-Jun-13 04:28S 27°47' E 153°56'26410.1
2018-Jun-12 02:17S 32°04' E 152°50'1911.5
2018-Jun-12 00:39S 32°22' E 152°41'211.5
2018-Jun-12 00:29S 32°23' E 152°40'511.0
2018-Jun-12 00:00S 32°28' E 152°37'510.6
2018-Jun-11 23:30S 32°32' E 152°34'510.5
2018-Jun-11 23:00S 32°37' E 152°30'510.4
2018-Jun-11 22:30S 32°41' E 152°26'510.2
2018-Jun-11 22:00S 32°45' E 152°22'510.2
2018-Jun-11 21:30S 32°48' E 152°18'510.7
2018-Jun-11 21:00S 32°51' E 152°12'510.8
2018-Jun-11 20:30S 32°54' E 152°07'510.8
2018-Jun-11 20:00S 32°57' E 152°01'510.5
2018-Jun-11 19:30S 32°57' E 151°55'4 8.8
2018-Jun-11 19:00S 32°56' E 151°50'3 5.1
2018-Jun-11 18:30S 32°55' E 151°47'2 3.6
2018-Jun-11 18:00S 32°54' E 151°46'0 0.8
2018-Jun-11 17:30S 32°53' E 151°46'0 0.0
2018-Jun-11 17:00S 32°53' E 151°46'0 0.0
2018-Jun-11 16:30S 32°53' E 151°46'0 0.0
2018-Jun-11 16:00S 32°53' E 151°46'0 0.0
2018-Jun-11 15:30S 32°53' E 151°46'0 0.0
2018-Jun-11 15:00S 32°53' E 151°46'0 0.0
2018-Jun-11 14:30S 32°53' E 151°46'0 0.0
2018-Jun-11 13:36S 32°53' E 151°46'0 0.0
2018-Jun-11 13:30S 32°53' E 151°46'0 0.0
2018-Jun-11 13:00S 32°53' E 151°46'0 0.0
2018-Jun-11 12:30S 32°53' E 151°46'0 0.0
2018-Jun-11 12:00S 32°53' E 151°46'0 0.0
2018-Jun-11 11:30S 32°53' E 151°46'0 0.0
2018-Jun-11 10:54S 32°53' E 151°46'0 0.0
2018-Jun-11 10:24S 32°53' E 151°46'0 0.0
2018-Jun-11 10:00S 32°53' E 151°46'0 0.0
2018-Jun-11 09:30S 32°53' E 151°46'0 0.0
2018-Jun-11 08:57S 32°53' E 151°46'0 0.0
2018-Jun-11 08:30S 32°53' E 151°46'0 0.0
2018-Jun-11 08:00S 32°53' E 151°46'0 0.0
2018-Jun-11 07:30S 32°53' E 151°46'0 0.0
2018-Jun-11 07:00S 32°53' E 151°46'0 0.0
2018-Jun-11 06:30S 32°53' E 151°46'0 0.0
2018-Jun-11 06:00S 32°53' E 151°46'0 0.0
2018-Jun-11 05:30S 32°53' E 151°46'0 0.0
2018-Jun-11 05:00S 32°53' E 151°46'0 0.0
2018-Jun-11 04:30S 32°53' E 151°46'0 0.0
2018-Jun-11 04:00S 32°53' E 151°46'0 0.0
2018-Jun-11 03:30S 32°53' E 151°46'0 0.0
2018-Jun-11 03:00S 32°53' E 151°46'0 0.0
2018-Jun-11 02:30S 32°53' E 151°46'0 0.0
2018-Jun-11 02:00S 32°53' E 151°46'0 0.0
2018-Jun-11 01:30S 32°53' E 151°46'0 0.0
2018-Jun-11 01:00S 32°53' E 151°46'0 0.0
2018-Jun-11 00:30S 32°53' E 151°46'1 1.1
2018-Jun-11 00:00S 32°54' E 151°46'2 4.3
2018-Jun-10 23:31S 32°55' E 151°49'4 7.5
2018-Jun-10 23:00S 32°57' E 151°52'2 4.1
2018-Jun-10 22:31S 32°59' E 151°51'3 6.4
2018-Jun-10 22:00S 33°01' E 151°48'4 7.4
2018-Jun-10 21:30S 33°04' E 151°45'1 1.0
2018-Jun-10 20:59S 33°04' E 151°44'0 0.1
2018-Jun-10 20:29S 33°04' E 151°44'0 0.1
2018-Jun-10 19:56S 33°04' E 151°44'0 0.1
2018-Jun-10 19:26S 33°04' E 151°45'0 0.0
2018-Jun-10 18:59S 33°04' E 151°45'0 0.1
2018-Jun-10 18:29S 33°04' E 151°44'0 0.1
2018-Jun-10 17:59S 33°04' E 151°45'0 0.1
2018-Jun-10 17:14S 33°04' E 151°44'0 0.0
2018-Jun-10 16:59S 33°04' E 151°44'0 0.1
2018-Jun-10 16:29S 33°04' E 151°45'0 0.2
2018-Jun-10 15:59S 33°04' E 151°44'0 0.2
2018-Jun-10 15:29S 33°04' E 151°45'0 0.1
2018-Jun-10 14:59S 33°04' E 151°44'0 0.0
2018-Jun-10 14:29S 33°04' E 151°44'0 0.0
2018-Jun-10 13:29S 33°04' E 151°44'0 0.1
2018-Jun-10 12:59S 33°04' E 151°45'0 0.1
2018-Jun-10 12:29S 33°04' E 151°44'0 0.0
2018-Jun-10 11:50S 33°04' E 151°44'0 0.0
2018-Jun-10 11:29S 33°04' E 151°44'0 0.1
2018-Jun-10 10:59S 33°04' E 151°44'0 0.1
2018-Jun-10 10:29S 33°04' E 151°44'0 0.1
2018-Jun-10 09:59S 33°04' E 151°44'0 0.0
2018-Jun-10 09:17S 33°04' E 151°44'0 0.1
2018-Jun-10 08:44S 33°04' E 151°45'0 0.0
2018-Jun-10 08:11S 33°04' E 151°45'0 0.0
2018-Jun-10 07:59S 33°04' E 151°45'0 0.0
2018-Jun-10 07:29S 33°04' E 151°45'0 0.0
2018-Jun-10 06:59S 33°04' E 151°45'0 0.1
2018-Jun-10 06:29S 33°04' E 151°44'0 0.0
2018-Jun-10 05:59S 33°04' E 151°44'0 0.2
2018-Jun-10 05:29S 33°04' E 151°45'0 0.0
2018-Jun-10 04:56S 33°04' E 151°45'0 0.0
2018-Jun-10 04:26S 33°04' E 151°45'0 0.0
2018-Jun-10 03:59S 33°04' E 151°45'0 0.1
2018-Jun-10 03:29S 33°04' E 151°45'0 0.1
2018-Jun-10 02:56S 33°04' E 151°45'0 0.0
2018-Jun-10 02:29S 33°04' E 151°45'0 0.0
2018-Jun-10 01:59S 33°04' E 151°45'0 0.0
2018-Jun-10 01:26S 33°04' E 151°45'0 0.1
2018-Jun-10 00:56S 33°04' E 151°45'0 0.0
2018-Jun-09 23:41S 33°04' E 151°45'0 0.2
2018-Jun-09 23:23S 33°04' E 151°44'0 0.1
2018-Jun-09 22:59S 33°04' E 151°45'0 0.0
2018-Jun-09 22:23S 33°04' E 151°45'0 0.1
2018-Jun-09 21:32S 33°04' E 151°44'0 0.0
2018-Jun-09 21:26S 33°04' E 151°44'0 0.0
2018-Jun-09 20:59S 33°04' E 151°44'0 0.1
2018-Jun-09 20:29S 33°04' E 151°44'0 0.0
2018-Jun-09 19:56S 33°04' E 151°44'0 0.1
2018-Jun-09 19:26S 33°04' E 151°44'0 0.0
2018-Jun-09 18:08S 33°04' E 151°44'0 0.1
2018-Jun-09 17:44S 33°04' E 151°44'0 0.0
2018-Jun-09 17:20S 33°04' E 151°44'0 0.2
2018-Jun-09 16:59S 33°04' E 151°44'0 0.1
2018-Jun-09 16:20S 33°04' E 151°44'0 0.0
2018-Jun-09 15:56S 33°04' E 151°44'0 0.0
2018-Jun-09 15:29S 33°04' E 151°44'0 0.0
2018-Jun-09 14:29S 33°04' E 151°44'0 0.0
2018-Jun-09 13:56S 33°04' E 151°44'0 0.1
2018-Jun-09 12:05S 33°04' E 151°45'0 0.2
2018-Jun-09 11:56S 33°04' E 151°45'0 0.1
2018-Jun-09 11:23S 33°04' E 151°45'0 0.1
2018-Jun-09 10:29S 33°04' E 151°45'0 0.1
2018-Jun-09 09:59S 33°04' E 151°45'0 0.0
2018-Jun-09 09:29S 33°04' E 151°45'0 0.1
2018-Jun-09 08:59S 33°04' E 151°44'0 0.0
2018-Jun-09 08:23S 33°04' E 151°44'0 0.0
2018-Jun-09 07:59S 33°04' E 151°44'0 0.0
2018-Jun-09 07:29S 33°04' E 151°44'0 0.0
2018-Jun-09 06:59S 33°04' E 151°44'0 0.0
2018-Jun-09 06:29S 33°04' E 151°44'0 0.0
2018-Jun-09 05:59S 33°04' E 151°44'0 0.0
2018-Jun-09 05:26S 33°04' E 151°44'0 0.0
2018-Jun-09 04:59S 33°04' E 151°44'0 0.0
2018-Jun-09 04:23S 33°04' E 151°44'0 0.0
2018-Jun-09 03:56S 33°04' E 151°44'0 0.0
2018-Jun-09 03:17S 33°04' E 151°44'0 0.0
2018-Jun-09 02:59S 33°04' E 151°44'0 0.0
2018-Jun-09 02:23S 33°04' E 151°44'0 0.0
2018-Jun-09 01:56S 33°04' E 151°44'0 0.1
2018-Jun-09 01:29S 33°04' E 151°45'0 0.1
2018-Jun-09 00:59S 33°04' E 151°44'0 0.1
2018-Jun-09 00:29S 33°04' E 151°45'0 0.0
2018-Jun-08 23:59S 33°04' E 151°45'0 0.0
2018-Jun-08 23:29S 33°04' E 151°45'0 0.0
2018-Jun-08 22:59S 33°04' E 151°45'0 0.0
2018-Jun-08 22:29S 33°04' E 151°45'0 0.0
2018-Jun-08 21:59S 33°04' E 151°45'0 0.1
2018-Jun-08 21:29S 33°04' E 151°44'0 0.0
2018-Jun-08 20:53S 33°04' E 151°44'0 0.0
2018-Jun-08 20:29S 33°04' E 151°44'0 0.0
2018-Jun-08 19:59S 33°04' E 151°44'0 0.1
2018-Jun-08 19:29S 33°04' E 151°44'0 0.0
2018-Jun-08 18:56S 33°04' E 151°44'0 0.0
2018-Jun-08 16:47S 33°04' E 151°44'0 0.0
2018-Jun-08 16:26S 33°04' E 151°44'0 0.0
2018-Jun-08 15:59S 33°04' E 151°44'0 0.0
2018-Jun-08 15:29S 33°04' E 151°44'0 0.0
2018-Jun-08 14:59S 33°04' E 151°44'0 0.0
2018-Jun-08 13:41S 33°04' E 151°44'0 0.0
2018-Jun-08 13:29S 33°04' E 151°44'0 0.0
2018-Jun-08 12:41S 33°04' E 151°44'0 0.1
2018-Jun-08 12:29S 33°04' E 151°44'0 0.0
2018-Jun-08 11:59S 33°04' E 151°44'0 0.0
2018-Jun-08 11:29S 33°04' E 151°44'0 0.0
2018-Jun-08 10:41S 33°04' E 151°44'0 0.0
2018-Jun-08 10:23S 33°04' E 151°44'0 0.0
2018-Jun-08 09:59S 33°04' E 151°44'0 0.0
2018-Jun-08 09:26S 33°04' E 151°44'0 0.0
2018-Jun-08 08:59S 33°04' E 151°44'0 0.0
2018-Jun-08 08:29S 33°04' E 151°44'0 0.0
2018-Jun-08 07:47S 33°04' E 151°44'0 0.0
2018-Jun-08 07:26S 33°04' E 151°44'0 0.0
2018-Jun-08 06:47S 33°04' E 151°44'0 0.0
2018-Jun-08 05:44S 33°04' E 151°44'0 0.0
2018-Jun-08 05:20S 33°04' E 151°44'0 0.0
2018-Jun-08 04:56S 33°04' E 151°44'0 0.0
2018-Jun-08 04:26S 33°04' E 151°44'0 0.0
2018-Jun-08 03:59S 33°04' E 151°44'0 0.0
2018-Jun-08 03:29S 33°04' E 151°44'0 0.0
2018-Jun-08 02:59S 33°04' E 151°44'0 0.1
2018-Jun-08 02:29S 33°04' E 151°44'0 0.0
2018-Jun-08 01:53S 33°04' E 151°44'0 0.1
2018-Jun-08 01:29S 33°04' E 151°44'0 0.0
2018-Jun-08 00:59S 33°04' E 151°44'0 0.1
2018-Jun-08 00:29S 33°04' E 151°44'0 0.0
2018-Jun-07 23:59S 33°04' E 151°44'0 0.0
2018-Jun-07 23:29S 33°04' E 151°44'0 0.0
2018-Jun-07 22:59S 33°04' E 151°44'0 0.0
2018-Jun-07 22:23S 33°04' E 151°44'0 0.0
2018-Jun-07 21:47S 33°04' E 151°44'0 0.0
2018-Jun-07 21:26S 33°04' E 151°44'0 0.0
2018-Jun-07 20:56S 33°04' E 151°44'0 0.0
2018-Jun-07 20:29S 33°04' E 151°44'0 0.0
2018-Jun-07 19:59S 33°04' E 151°44'0 0.0
2018-Jun-07 19:23S 33°04' E 151°44'0 0.0
2018-Jun-07 18:59S 33°04' E 151°44'0 0.0
2018-Jun-07 18:29S 33°04' E 151°44'0 0.0
2018-Jun-07 17:59S 33°04' E 151°44'0 0.0
2018-Jun-07 17:26S 33°04' E 151°44'0 0.0
2018-Jun-07 16:59S 33°04' E 151°44'0 0.0
2018-Jun-07 16:23S 33°04' E 151°44'0 0.0
2018-Jun-07 15:56S 33°04' E 151°44'0 0.0
2018-Jun-07 15:05S 33°04' E 151°44'0 0.1
2018-Jun-07 14:59S 33°04' E 151°44'0 0.1
2018-Jun-07 14:23S 33°04' E 151°44'0 0.1
2018-Jun-07 13:59S 33°04' E 151°44'0 0.0
2018-Jun-07 12:56S 33°04' E 151°44'0 0.0
2018-Jun-07 12:29S 33°04' E 151°44'0 0.0
2018-Jun-07 11:53S 33°04' E 151°44'0 0.0
2018-Jun-07 11:23S 33°04' E 151°44'0 0.0
2018-Jun-07 08:53S 33°04' E 151°44'0 0.0
2018-Jun-07 08:23S 33°04' E 151°44'0 0.0
2018-Jun-07 07:59S 33°04' E 151°44'0 0.0
2018-Jun-07 07:29S 33°04' E 151°44'0 0.0
2018-Jun-07 05:32S 33°04' E 151°44'0 0.1
2018-Jun-07 05:23S 33°04' E 151°44'0 0.0
2018-Jun-07 04:50S 33°04' E 151°44'0 0.0
2018-Jun-07 04:14S 33°04' E 151°44'0 0.0
2018-Jun-07 03:47S 33°04' E 151°44'0 0.0
2018-Jun-07 03:28S 33°04' E 151°44'0 0.0
2018-Jun-07 02:52S 33°04' E 151°44'0 0.0
2018-Jun-07 02:10S 33°04' E 151°44'0 0.0
2018-Jun-07 01:34S 33°04' E 151°44'0 0.0
2018-Jun-07 01:13S 33°04' E 151°44'0 0.0
2018-Jun-07 00:49S 33°04' E 151°44'0 0.0
2018-Jun-07 00:13S 33°04' E 151°44'0 0.0
2018-Jun-06 23:46S 33°04' E 151°44'0 0.0
2018-Jun-06 23:04S 33°04' E 151°44'0 0.2
2018-Jun-06 22:58S 33°04' E 151°44'0 0.0
2018-Jun-06 22:13S 33°04' E 151°44'0 0.0
2018-Jun-06 21:58S 33°04' E 151°44'0 0.0
2018-Jun-06 21:22S 33°04' E 151°44'0 0.1
2018-Jun-06 20:58S 33°04' E 151°44'0 0.1
2018-Jun-06 20:28S 33°04' E 151°44'0 0.0
2018-Jun-06 19:31S 33°04' E 151°44'0 0.0
2018-Jun-06 19:22S 33°04' E 151°44'0 0.0
2018-Jun-06 18:49S 33°04' E 151°44'0 0.0
2018-Jun-06 18:25S 33°04' E 151°44'0 0.0
2018-Jun-06 17:58S 33°04' E 151°44'0 0.0
2018-Jun-06 17:28S 33°04' E 151°44'0 0.0
2018-Jun-06 16:58S 33°04' E 151°44'0 0.0
2018-Jun-06 16:25S 33°04' E 151°44'0 0.0
2018-Jun-06 15:46S 33°04' E 151°44'0 0.0
2018-Jun-06 15:10S 33°04' E 151°44'0 0.0
2018-Jun-06 14:40S 33°04' E 151°44'0 0.1
2018-Jun-06 14:22S 33°04' E 151°44'0 0.0
2018-Jun-06 13:58S 33°04' E 151°44'0 0.1
2018-Jun-06 13:28S 33°04' E 151°44'0 0.1
2018-Jun-06 12:58S 33°04' E 151°44'0 0.0
2018-Jun-06 12:25S 33°04' E 151°44'0 0.1
2018-Jun-06 11:52S 33°04' E 151°44'0 0.1
2018-Jun-06 11:28S 33°04' E 151°44'0 0.0
2018-Jun-06 10:55S 33°04' E 151°44'0 0.2
2018-Jun-06 10:28S 33°04' E 151°44'0 0.1
2018-Jun-06 09:55S 33°04' E 151°44'0 0.3
2018-Jun-06 09:28S 33°04' E 151°44'0 0.1
2018-Jun-06 08:55S 33°04' E 151°44'0 0.0
2018-Jun-06 08:28S 33°04' E 151°44'0 0.0
2018-Jun-06 07:58S 33°04' E 151°44'0 0.0
2018-Jun-06 07:28S 33°04' E 151°44'0 0.0
2018-Jun-06 06:58S 33°04' E 151°44'0 0.0
2018-Jun-06 06:28S 33°04' E 151°44'0 0.0
2018-Jun-06 05:49S 33°04' E 151°44'0 0.1
2018-Jun-06 05:28S 33°04' E 151°45'0 0.0
2018-Jun-06 04:58S 33°04' E 151°45'0 0.0
2018-Jun-06 04:07S 33°04' E 151°45'0 0.4
2018-Jun-06 03:58S 33°04' E 151°44'0 0.1
2018-Jun-06 03:25S 33°04' E 151°45'0 0.0
2018-Jun-06 02:55S 33°04' E 151°45'0 0.0
2018-Jun-06 02:19S 33°04' E 151°45'0 0.0
2018-Jun-06 01:49S 33°04' E 151°45'0 0.1
2018-Jun-06 01:25S 33°04' E 151°44'0 0.1
2018-Jun-06 00:46S 33°04' E 151°45'0 0.0
2018-Jun-06 00:28S 33°04' E 151°45'0 0.0
2018-Jun-05 23:58S 33°04' E 151°45'0 0.0
2018-Jun-05 23:25S 33°04' E 151°45'0 0.0
2018-Jun-05 22:58S 33°04' E 151°45'0 0.0
2018-Jun-05 22:28S 33°04' E 151°45'0 0.0
2018-Jun-05 21:55S 33°04' E 151°45'0 0.1
2018-Jun-05 21:28S 33°04' E 151°45'0 0.0
2018-Jun-05 20:58S 33°04' E 151°45'0 0.1
2018-Jun-05 20:28S 33°04' E 151°45'0 0.0
2018-Jun-05 19:52S 33°04' E 151°45'0 0.1
2018-Jun-05 19:28S 33°04' E 151°45'0 0.0
2018-Jun-05 18:58S 33°04' E 151°45'0 0.0
2018-Jun-05 18:28S 33°04' E 151°45'0 0.0
2018-Jun-05 17:55S 33°04' E 151°45'0 0.0
2018-Jun-05 17:04S 33°04' E 151°45'0 0.0
2018-Jun-05 16:58S 33°04' E 151°45'0 0.1
2018-Jun-05 16:22S 33°04' E 151°45'0 0.0
2018-Jun-05 15:58S 33°04' E 151°45'0 0.0
2018-Jun-05 15:28S 33°04' E 151°45'0 0.1
2018-Jun-05 14:58S 33°04' E 151°45'0 0.0
2018-Jun-05 14:28S 33°04' E 151°45'0 0.1
2018-Jun-05 13:58S 33°04' E 151°45'0 0.0
2018-Jun-05 13:19S 33°04' E 151°45'0 0.1
2018-Jun-05 12:55S 33°04' E 151°44'0 0.1
2018-Jun-05 12:25S 33°04' E 151°45'0 0.1
2018-Jun-05 11:52S 33°04' E 151°45'0 0.0
2018-Jun-05 11:16S 33°04' E 151°45'0 0.0
2018-Jun-05 10:52S 33°04' E 151°45'0 0.0
2018-Jun-05 10:07S 33°04' E 151°45'0 0.0
2018-Jun-05 09:46S 33°04' E 151°45'0 0.1
2018-Jun-05 09:13S 33°04' E 151°45'0 0.0
2018-Jun-05 08:58S 33°04' E 151°45'0 0.0
2018-Jun-05 08:28S 33°04' E 151°45'0 0.0
2018-Jun-05 07:58S 33°04' E 151°45'0 0.0
2018-Jun-05 07:28S 33°04' E 151°45'0 0.0
2018-Jun-05 06:58S 33°04' E 151°45'0 0.0
2018-Jun-05 06:28S 33°04' E 151°45'0 0.0
2018-Jun-05 05:52S 33°04' E 151°45'0 0.0
2018-Jun-05 05:25S 33°04' E 151°45'0 0.1
2018-Jun-05 04:46S 33°04' E 151°45'0 0.0
2018-Jun-05 04:25S 33°04' E 151°45'0 0.0
2018-Jun-05 03:01S 33°04' E 151°45'0 0.0
2018-Jun-05 02:43S 33°04' E 151°45'0 0.0
2018-Jun-05 00:04S 33°04' E 151°45'0 0.0
2018-Jun-04 23:01S 33°04' E 151°45'0 0.0
2018-Jun-04 22:58S 33°04' E 151°45'1 1.2
2018-Jun-04 22:30S 33°04' E 151°45'2 4.2
2018-Jun-04 22:00S 33°05' E 151°47'5 9.7
2018-Jun-04 21:28S 33°07' E 151°53'511.0
2018-Jun-04 21:00S 33°09' E 151°59'3 4.5
2018-Jun-04 20:19S 33°10' E 152°02'1 1.7
2018-Jun-04 19:58S 33°11' E 152°03'1 1.8
2018-Jun-04 19:28S 33°11' E 152°04'1 1.1
2018-Jun-04 18:58S 33°12' E 152°04'0 0.6
2018-Jun-04 18:28S 33°12' E 152°04'0 0.5
2018-Jun-04 17:55S 33°12' E 152°04'0 0.8
2018-Jun-04 17:28S 33°12' E 152°05'3 6.2
2018-Jun-04 17:00S 33°09' E 152°05'1 1.6
2018-Jun-04 16:29S 33°08' E 152°04'0 0.7
2018-Jun-04 15:56S 33°09' E 152°04'0 0.6
2018-Jun-04 15:29S 33°09' E 152°04'0 0.8
2018-Jun-04 14:59S 33°09' E 152°04'0 0.8
2018-Jun-04 14:29S 33°10' E 152°04'0 0.9
2018-Jun-04 13:56S 33°10' E 152°03'0 1.0
2018-Jun-04 13:29S 33°10' E 152°03'0 0.9
2018-Jun-04 12:56S 33°11' E 152°03'1 1.1
2018-Jun-04 12:26S 33°11' E 152°04'0 0.7
2018-Jun-04 11:59S 33°12' E 152°04'0 0.7
2018-Jun-04 11:26S 33°12' E 152°03'1 3.0
2018-Jun-04 11:00S 33°11' E 152°02'4 7.1
2018-Jun-04 10:30S 33°08' E 152°01'4 8.1
2018-Jun-04 10:00S 33°04' E 151°60'0 0.6
2018-Jun-04 09:28S 33°04' E 151°60'0 0.6
2018-Jun-04 08:58S 33°05' E 151°60'0 0.5
2018-Jun-04 08:28S 33°05' E 151°60'0 0.6
2018-Jun-04 07:58S 33°05' E 151°60'0 0.7
2018-Jun-04 07:28S 33°06' E 151°60'0 0.5
2018-Jun-04 06:58S 33°06' E 151°60'0 0.5
2018-Jun-04 06:28S 33°06' E 151°59'0 0.5
2018-Jun-04 05:58S 33°06' E 151°59'0 0.7
2018-Jun-04 05:28S 33°07' E 151°59'0 0.7
2018-Jun-04 04:58S 33°07' E 151°59'0 0.5
2018-Jun-04 04:28S 33°07' E 151°59'0 0.5
2018-Jun-04 03:55S 33°07' E 151°59'0 0.7
2018-Jun-04 03:28S 33°08' E 151°59'0 0.8
2018-Jun-04 02:59S 33°08' E 151°59'0 0.9
2018-Jun-04 02:29S 33°08' E 151°60'0 0.9
2018-Jun-04 01:58S 33°09' E 152°00'0 0.8
2018-Jun-04 01:28S 33°09' E 152°01'0 0.8
2018-Jun-04 00:58S 33°09' E 152°01'0 0.9
2018-Jun-04 00:28S 33°10' E 152°01'0 0.9
2018-Jun-03 23:58S 33°10' E 152°01'0 0.8
2018-Jun-03 23:28S 33°10' E 152°01'0 0.7
2018-Jun-03 22:55S 33°11' E 152°02'0 0.7
2018-Jun-03 22:28S 33°11' E 152°02'0 0.9
2018-Jun-03 21:58S 33°11' E 152°02'0 0.7
2018-Jun-03 21:28S 33°12' E 152°02'0 0.7
2018-Jun-03 21:00S 33°12' E 152°02'4 7.7
2018-Jun-03 20:30S 33°10' E 151°58'4 8.0
2018-Jun-03 20:01S 33°07' E 151°54'1 1.9
2018-Jun-03 19:29S 33°07' E 151°53'1 2.5
2018-Jun-03 19:00S 33°08' E 151°54'1 2.4
2018-Jun-03 18:30S 33°09' E 151°54'1 2.2
2018-Jun-03 17:50S 33°10' E 151°55'1 1.8
2018-Jun-03 17:21S 33°11' E 151°56'1 2.1
2018-Jun-03 16:54S 33°11' E 151°57'1 1.9
2018-Jun-03 16:26S 33°12' E 151°58'1 2.1
2018-Jun-03 15:57S 33°12' E 151°59'1 2.0
2018-Jun-03 15:27S 33°13' E 151°60'1 2.1
2018-Jun-03 14:54S 33°13' E 152°01'1 2.0
2018-Jun-03 14:27S 33°13' E 152°02'1 1.2
2018-Jun-03 14:00S 33°12' E 152°03'4 7.9
2018-Jun-03 13:30S 33°09' E 152°02'4 8.4
2018-Jun-03 13:00S 33°05' E 151°60'2 3.1
2018-Jun-03 12:30S 33°03' E 151°59'1 2.2
2018-Jun-03 12:00S 33°04' E 151°60'1 2.0
2018-Jun-03 11:27S 33°05' E 152°01'1 2.0
2018-Jun-03 11:00S 33°05' E 152°02'1 1.8
2018-Jun-03 10:30S 33°05' E 152°03'1 2.1
2018-Jun-03 10:00S 33°06' E 152°04'2 4.3
2018-Jun-03 09:30S 33°05' E 152°06'5 9.1
2018-Jun-03 09:00S 33°02' E 152°10'5 9.5
2018-Jun-03 08:30S 32°58' E 152°14'4 8.1
2018-Jun-03 08:00S 32°56' E 152°18'1 1.4
2018-Jun-03 07:30S 32°56' E 152°18'0 0.8
2018-Jun-03 07:00S 32°57' E 152°18'1 1.2
2018-Jun-03 06:30S 32°57' E 152°18'1 1.6
2018-Jun-03 06:00S 32°58' E 152°18'1 1.3
2018-Jun-03 05:30S 32°59' E 152°18'1 1.3
2018-Jun-03 05:00S 32°59' E 152°18'1 1.2
2018-Jun-03 04:31S 33°00' E 152°18'  

Dump ship's entire track history